createdAt,value
2023-02-23T00:01:42.542Z,994.05
2023-02-23T00:06:42.410Z,994.08
2023-02-23T00:11:42.433Z,994.04
2023-02-23T00:16:42.394Z,994.03
2023-02-23T00:21:45.469Z,993.99
2023-02-23T00:26:42.240Z,993.88
2023-02-23T00:31:42.259Z,993.90
2023-02-23T00:36:42.002Z,993.91
2023-02-23T00:41:42.009Z,993.93
2023-02-23T00:46:41.872Z,993.92
2023-02-23T00:51:41.931Z,993.89
2023-02-23T00:56:41.757Z,993.87
2023-02-23T01:01:42.048Z,993.90
2023-02-23T01:06:41.824Z,993.91
2023-02-23T01:11:42.269Z,993.90
2023-02-23T01:16:41.649Z,993.89
2023-02-23T01:21:52.469Z,993.86
2023-02-23T01:26:49.080Z,993.86
2023-02-23T01:31:49.485Z,993.86
2023-02-23T01:36:41.246Z,993.89
2023-02-23T01:41:41.239Z,993.74
2023-02-23T01:46:41.100Z,993.64
2023-02-23T01:51:41.152Z,993.61
2023-02-23T01:56:41.034Z,993.64
2023-02-23T02:01:41.001Z,993.77
2023-02-23T02:06:40.995Z,993.71
2023-02-23T02:11:40.934Z,993.61
2023-02-23T02:16:40.745Z,993.62
2023-02-23T02:21:43.675Z,993.64
2023-02-23T02:26:40.642Z,993.67
2023-02-23T02:31:40.734Z,993.63
2023-02-23T02:36:40.529Z,993.63
2023-02-23T02:41:41.204Z,993.71
2023-02-23T02:46:40.287Z,993.61
2023-02-23T02:51:40.297Z,993.63
2023-02-23T02:56:40.694Z,993.65
2023-02-23T03:01:40.317Z,993.60
2023-02-23T03:06:40.234Z,993.57
2023-02-23T03:11:40.076Z,993.58
2023-02-23T03:16:39.912Z,993.57
2023-02-23T03:21:43.426Z,993.55
2023-02-23T03:26:39.794Z,993.50
2023-02-23T03:31:39.957Z,993.50
2023-02-23T03:36:39.659Z,993.57
2023-02-23T03:41:39.655Z,993.69
2023-02-23T03:46:39.561Z,993.73
2023-02-23T03:51:40.167Z,993.72
2023-02-23T03:56:39.423Z,993.74
2023-02-23T04:01:39.461Z,993.74
2023-02-23T04:06:39.312Z,993.77
2023-02-23T04:11:39.340Z,993.74
2023-02-23T04:16:39.226Z,993.76
2023-02-23T04:21:42.116Z,993.80
2023-02-23T04:26:39.024Z,993.77
2023-02-23T04:31:39.405Z,993.76
2023-02-23T04:36:38.873Z,993.77
2023-02-23T04:41:38.832Z,993.75
2023-02-23T04:46:38.732Z,993.81
2023-02-23T04:51:38.860Z,993.83
2023-02-23T04:56:38.682Z,993.89
2023-02-23T05:01:38.887Z,993.89
2023-02-23T05:06:38.605Z,993.91
2023-02-23T05:11:38.474Z,993.86
2023-02-23T05:16:38.546Z,993.90
2023-02-23T05:21:41.306Z,993.93
2023-02-23T05:26:38.266Z,993.92
2023-02-23T05:31:38.525Z,993.92
2023-02-23T05:36:38.074Z,993.88
2023-02-23T05:41:38.453Z,993.91
2023-02-23T05:46:38.193Z,994.01
2023-02-23T05:51:37.957Z,994.09
2023-02-23T05:56:37.862Z,994.14
2023-02-23T06:01:37.804Z,994.17
2023-02-23T06:06:37.689Z,994.10
2023-02-23T06:11:38.097Z,994.19
2023-02-23T06:16:45.482Z,994.20
2023-02-23T06:21:48.222Z,994.23
2023-02-23T06:26:44.656Z,994.26
2023-02-23T06:31:44.915Z,994.30
2023-02-23T06:36:37.315Z,994.26
2023-02-23T06:41:37.254Z,994.35
2023-02-23T06:46:37.363Z,994.33
2023-02-23T06:51:37.153Z,994.34
2023-02-23T06:56:37.008Z,994.36
2023-02-23T07:01:37.130Z,994.36
2023-02-23T07:06:37.043Z,994.46
2023-02-23T07:11:36.959Z,994.46
2023-02-23T07:16:36.784Z,994.49
2023-02-23T07:21:39.741Z,994.50
2023-02-23T07:26:36.694Z,994.51
2023-02-23T07:31:36.678Z,994.52
2023-02-23T07:36:36.494Z,994.52
2023-02-23T07:41:36.650Z,994.45
2023-02-23T07:46:36.380Z,994.48
2023-02-23T07:51:36.369Z,994.46
2023-02-23T07:56:36.270Z,994.51
2023-02-23T08:01:36.254Z,994.44
2023-02-23T08:06:36.150Z,994.45
2023-02-23T08:11:36.117Z,994.52
2023-02-23T08:16:36.020Z,994.46
2023-02-23T08:21:39.036Z,994.50
2023-02-23T08:26:35.914Z,994.54
2023-02-23T08:31:36.162Z,994.49
2023-02-23T08:36:35.711Z,994.55
2023-02-23T08:41:35.684Z,994.46
2023-02-23T08:46:35.728Z,994.47
2023-02-23T08:51:35.566Z,994.44
2023-02-23T08:56:35.586Z,994.43
2023-02-23T09:01:35.535Z,994.38
2023-02-23T09:06:35.367Z,994.39
2023-02-23T09:11:35.446Z,994.41
2023-02-23T09:16:35.226Z,994.37
2023-02-23T09:21:38.345Z,994.36
2023-02-23T09:26:35.066Z,994.36
2023-02-23T09:31:35.181Z,994.39
2023-02-23T09:36:35.005Z,994.40
2023-02-23T09:41:34.941Z,994.36
2023-02-23T09:46:34.819Z,994.35
2023-02-23T09:51:34.781Z,994.33
2023-02-23T09:56:34.756Z,994.33
2023-02-23T10:01:34.699Z,994.31
2023-02-23T10:06:34.526Z,994.28
2023-02-23T10:11:36.356Z,994.29
2023-02-23T10:16:34.428Z,994.30
2023-02-23T10:21:37.428Z,994.26
2023-02-23T10:26:34.300Z,994.28
2023-02-23T10:31:34.467Z,994.33
2023-02-23T10:36:34.204Z,994.18
2023-02-23T10:41:34.163Z,994.18
2023-02-23T10:46:34.082Z,994.20
2023-02-23T10:51:34.015Z,994.23
2023-02-23T10:56:41.737Z,994.18
2023-02-23T11:01:49.097Z,994.13
2023-02-23T11:06:34.753Z,994.10
2023-02-23T11:11:33.646Z,994.02
2023-02-23T11:16:33.755Z,993.96
2023-02-23T11:21:36.734Z,994.01
2023-02-23T11:26:33.518Z,994.00
2023-02-23T11:31:33.465Z,994.00
2023-02-23T11:36:33.338Z,993.92
2023-02-23T11:41:33.297Z,993.89
2023-02-23T11:46:33.285Z,993.83
2023-02-23T11:51:33.203Z,993.81
2023-02-23T11:56:33.098Z,993.77
2023-02-23T12:01:33.071Z,993.77
2023-02-23T12:06:33.014Z,993.73
2023-02-23T12:11:32.908Z,993.70
2023-02-23T12:16:32.850Z,993.71
2023-02-23T12:21:35.821Z,993.72
2023-02-23T12:26:32.681Z,993.71
2023-02-23T12:31:32.681Z,993.67
2023-02-23T12:36:32.554Z,993.60
2023-02-23T12:41:32.499Z,993.58
2023-02-23T12:46:32.511Z,993.57
2023-02-23T12:51:32.371Z,993.56
2023-02-23T12:56:32.273Z,993.58
2023-02-23T13:01:32.316Z,993.59
2023-02-23T13:06:32.144Z,993.60
2023-02-23T13:11:32.230Z,993.58
2023-02-23T13:16:32.083Z,993.60
2023-02-23T13:21:34.980Z,993.55
2023-02-23T13:26:31.896Z,993.55
2023-02-23T13:31:31.992Z,993.52
2023-02-23T13:36:31.752Z,993.55
2023-02-23T13:41:31.747Z,993.52
2023-02-23T13:46:31.745Z,993.54
2023-02-23T13:51:32.021Z,993.52
2023-02-23T13:56:31.488Z,993.60
2023-02-23T14:01:31.604Z,993.56
2023-02-23T14:06:31.415Z,993.51
2023-02-23T14:11:31.422Z,993.54
2023-02-23T14:16:31.286Z,993.58
2023-02-23T14:21:34.288Z,993.52
2023-02-23T14:26:31.255Z,993.50
2023-02-23T14:31:31.358Z,993.56
2023-02-23T14:36:31.021Z,993.58
2023-02-23T14:41:31.090Z,993.56
2023-02-23T14:46:31.040Z,993.56
2023-02-23T14:51:31.170Z,993.54
2023-02-23T14:56:43.437Z,993.52
2023-02-23T15:01:31.931Z,993.57
2023-02-23T15:06:30.712Z,993.55
2023-02-23T15:11:30.604Z,993.50
2023-02-23T15:16:30.636Z,993.46
2023-02-23T15:21:34.639Z,993.45
2023-02-23T15:26:30.330Z,993.45
2023-02-23T15:31:37.795Z,993.48
2023-02-23T15:36:37.999Z,993.50
2023-02-23T15:41:37.326Z,993.59
2023-02-23T15:46:39.040Z,993.50
2023-02-23T15:51:30.066Z,993.53
2023-02-23T15:56:29.936Z,993.55
2023-02-23T16:01:30.045Z,993.53
2023-02-23T16:06:30.125Z,993.54
2023-02-23T16:11:29.827Z,993.54
2023-02-23T16:16:29.997Z,993.53
2023-02-23T16:21:32.886Z,993.56
2023-02-23T16:26:29.549Z,993.57
2023-02-23T16:31:29.789Z,993.59
2023-02-23T16:36:29.601Z,993.51
2023-02-23T16:41:29.350Z,993.52
2023-02-23T16:46:29.505Z,993.55
2023-02-23T16:51:29.245Z,993.59
2023-02-23T16:56:29.256Z,993.56
2023-02-23T17:01:29.105Z,993.61
2023-02-23T17:06:28.993Z,993.63
2023-02-23T17:11:28.961Z,993.64
2023-02-23T17:16:28.937Z,993.61
2023-02-23T17:21:31.920Z,993.66
2023-02-23T17:26:28.788Z,993.73
2023-02-23T17:31:29.389Z,993.71
2023-02-23T17:36:28.661Z,993.70
2023-02-23T17:41:28.677Z,993.72
2023-02-23T17:46:28.602Z,993.67
2023-02-23T17:51:28.602Z,993.74
2023-02-23T17:56:28.316Z,993.75
2023-02-23T18:01:28.364Z,993.76
2023-02-23T18:06:28.212Z,993.80
2023-02-23T18:11:28.276Z,993.72
2023-02-23T18:16:28.101Z,993.69
2023-02-23T18:21:31.086Z,993.72
2023-02-23T18:26:27.979Z,993.72
2023-02-23T18:31:28.071Z,993.69
2023-02-23T18:36:27.888Z,993.65
2023-02-23T18:41:27.885Z,993.61
2023-02-23T18:46:27.811Z,993.64
2023-02-23T18:51:27.670Z,993.58
2023-02-23T18:56:27.605Z,993.58
2023-02-23T19:01:27.829Z,993.55
2023-02-23T19:06:27.383Z,993.55
2023-02-23T19:11:27.356Z,993.53
2023-02-23T19:16:27.410Z,993.55
2023-02-23T19:21:30.497Z,993.59
2023-02-23T19:26:27.289Z,993.64
2023-02-23T19:31:27.247Z,993.51
2023-02-23T19:36:26.993Z,993.54
2023-02-23T19:41:26.957Z,993.63
2023-02-23T19:46:26.872Z,993.65
2023-02-23T19:51:26.861Z,993.66
2023-02-23T19:56:26.772Z,993.65
2023-02-23T20:01:26.738Z,993.68
2023-02-23T20:06:26.639Z,993.70
2023-02-23T20:11:26.720Z,993.81
2023-02-23T20:16:26.474Z,993.82
2023-02-23T20:21:29.639Z,993.91
2023-02-23T20:26:34.386Z,993.87
2023-02-23T20:31:33.809Z,993.89
2023-02-23T20:36:26.310Z,993.88
2023-02-23T20:41:26.139Z,993.94
2023-02-23T20:46:26.132Z,993.81
2023-02-23T20:51:26.143Z,993.80
2023-02-23T20:56:26.012Z,993.79
2023-02-23T21:01:26.477Z,993.83
2023-02-23T21:06:25.935Z,993.84
2023-02-23T21:11:25.741Z,993.84
2023-02-23T21:16:25.754Z,993.83
2023-02-23T21:21:28.950Z,993.78
2023-02-23T21:26:25.612Z,993.74
2023-02-23T21:31:25.779Z,993.68
2023-02-23T21:36:25.446Z,993.71
2023-02-23T21:41:25.435Z,993.75
2023-02-23T21:46:25.389Z,993.74
2023-02-23T21:51:25.297Z,993.69
2023-02-23T21:56:25.182Z,993.65
